createdAt,value
2019-01-08T00:02:17.244Z,9.20
2019-01-08T00:04:44.214Z,9.20
2019-01-08T00:10:53.456Z,9.20
2019-01-08T00:13:22.559Z,9.10
2019-01-08T00:16:03.687Z,9.40
2019-01-08T00:21:35.778Z,9.20
2019-01-08T00:24:15.983Z,9.40
2019-01-08T00:26:56.068Z,9.00
2019-01-08T00:29:36.331Z,9.10
2019-01-08T00:32:16.343Z,8.80
2019-01-08T00:34:57.350Z,9.20
2019-01-08T00:37:37.843Z,8.90
2019-01-08T00:40:18.775Z,9.00
2019-01-08T00:43:00.212Z,8.70
2019-01-08T00:45:41.564Z,8.90
2019-01-08T00:48:22.534Z,8.60
2019-01-08T00:51:03.579Z,9.10
2019-01-08T00:53:43.888Z,8.60
2019-01-08T00:56:24.373Z,8.50
2019-01-08T00:59:03.937Z,8.50
2019-01-08T01:01:44.037Z,8.50
2019-01-08T01:04:24.162Z,8.40
2019-01-08T01:07:05.430Z,8.20
2019-01-08T01:12:35.511Z,8.30
2019-01-08T01:15:18.358Z,8.10
2019-01-08T01:17:59.466Z,8.30
2019-01-08T01:20:41.052Z,8.20
2019-01-08T01:23:20.863Z,8.70
2019-01-08T01:26:01.011Z,8.40
2019-01-08T01:28:41.176Z,8.20
2019-01-08T01:31:21.386Z,8.10
2019-01-08T01:34:05.354Z,8.50
2019-01-08T01:36:46.279Z,8.30
2019-01-08T01:39:27.351Z,8.30
2019-01-08T01:41:56.114Z,8.20
2019-01-08T01:44:25.409Z,8.10
2019-01-08T01:47:06.931Z,8.20
2019-01-08T01:49:47.772Z,8.20
2019-01-08T01:52:28.591Z,8.40
2019-01-08T01:55:09.822Z,7.90
2019-01-08T01:57:50.335Z,8.40
2019-01-08T02:00:29.750Z,8.00
2019-01-08T02:03:09.775Z,8.10
2019-01-08T02:05:49.419Z,8.00
2019-01-08T02:08:29.462Z,7.90
2019-01-08T02:11:10.991Z,7.80
2019-01-08T02:13:38.966Z,7.70
2019-01-08T02:16:27.555Z,7.90
2019-01-08T02:18:56.543Z,8.00
2019-01-08T02:21:45.206Z,8.20
2019-01-08T02:24:26.870Z,7.60
2019-01-08T02:27:07.918Z,7.90
2019-01-08T02:29:55.328Z,7.70
2019-01-08T02:32:42.040Z,8.00
2019-01-08T02:35:22.079Z,7.90
2019-01-08T02:38:02.018Z,7.90
2019-01-08T02:40:42.965Z,8.10
2019-01-08T02:43:24.264Z,7.50
2019-01-08T02:46:05.556Z,7.80
2019-01-08T02:48:46.662Z,8.10
2019-01-08T02:51:27.707Z,7.90
2019-01-08T02:54:08.743Z,7.90
2019-01-08T02:56:49.836Z,8.30
2019-01-08T02:59:30.211Z,7.90
2019-01-08T03:02:09.892Z,8.30
2019-01-08T03:04:51.964Z,7.70
2019-01-08T03:07:32.304Z,8.00
2019-01-08T03:10:15.656Z,7.90
2019-01-08T03:12:56.804Z,8.00
2019-01-08T03:15:37.826Z,7.90
2019-01-08T03:18:18.703Z,7.90
2019-01-08T03:20:46.895Z,7.80
2019-01-08T03:23:34.841Z,7.90
2019-01-08T03:26:16.588Z,7.80
2019-01-08T03:28:44.294Z,7.40
2019-01-08T03:31:23.825Z,7.80
2019-01-08T03:33:51.042Z,7.80
2019-01-08T03:36:37.730Z,7.80
2019-01-08T03:39:18.070Z,7.90
2019-01-08T03:41:57.967Z,7.40
2019-01-08T03:44:41.161Z,7.40
2019-01-08T03:47:22.043Z,7.60
2019-01-08T03:50:03.259Z,7.60
2019-01-08T03:52:44.187Z,7.60
2019-01-08T03:55:25.383Z,7.90
2019-01-08T03:58:06.543Z,7.50
2019-01-08T04:00:47.635Z,7.50
2019-01-08T04:03:27.039Z,7.40
2019-01-08T04:06:07.051Z,7.30
2019-01-08T04:08:47.003Z,7.50
2019-01-08T04:11:26.713Z,7.40
2019-01-08T04:14:06.083Z,7.40
2019-01-08T04:16:47.356Z,7.50
2019-01-08T04:19:16.018Z,7.40
2019-01-08T04:22:04.595Z,7.70
2019-01-08T04:24:46.635Z,7.50
2019-01-08T04:27:27.544Z,8.00
2019-01-08T04:30:08.623Z,7.50
2019-01-08T04:32:49.784Z,7.10
2019-01-08T04:35:31.243Z,7.50
2019-01-08T04:38:10.990Z,7.30
2019-01-08T04:40:50.643Z,7.50
2019-01-08T04:43:30.914Z,7.50
2019-01-08T04:46:11.615Z,7.50
2019-01-08T04:48:52.846Z,7.80
2019-01-08T04:51:34.020Z,7.40
2019-01-08T04:54:04.927Z,7.40
2019-01-08T04:56:53.850Z,7.70
2019-01-08T04:59:25.107Z,7.20
2019-01-08T05:02:13.832Z,7.50
2019-01-08T05:04:53.945Z,7.40
2019-01-08T05:07:33.968Z,7.20
2019-01-08T05:10:14.111Z,7.70
2019-01-08T05:12:54.051Z,7.60
2019-01-08T05:15:34.147Z,7.30
2019-01-08T05:18:15.521Z,7.60
2019-01-08T05:20:56.440Z,7.20
2019-01-08T05:23:37.619Z,7.70
2019-01-08T05:26:18.550Z,7.60
2019-01-08T05:28:59.575Z,7.50
2019-01-08T05:31:40.897Z,7.50
2019-01-08T05:34:21.936Z,7.40
2019-01-08T05:37:02.036Z,7.40
2019-01-08T05:39:29.145Z,7.30
2019-01-08T05:42:16.789Z,7.20
2019-01-08T05:44:56.391Z,7.10
2019-01-08T05:47:36.383Z,7.20
2019-01-08T05:50:17.492Z,7.40
2019-01-08T05:52:58.343Z,7.40
2019-01-08T05:55:39.622Z,7.10
2019-01-08T05:58:20.529Z,7.70
2019-01-08T06:01:08.321Z,7.50
2019-01-08T06:03:57.211Z,7.50
2019-01-08T06:06:39.858Z,7.40
2019-01-08T06:09:19.511Z,7.50
2019-01-08T06:11:59.629Z,7.30
2019-01-08T06:14:26.678Z,7.30
2019-01-08T06:20:42.932Z,7.30
2019-01-08T06:23:24.412Z,7.20
2019-01-08T06:26:05.162Z,7.50
2019-01-08T06:28:45.318Z,7.20
2019-01-08T06:31:25.354Z,7.20
2019-01-08T06:34:05.290Z,7.20
2019-01-08T06:36:45.666Z,7.20
2019-01-08T06:39:26.714Z,7.20
2019-01-08T06:42:07.882Z,7.20
2019-01-08T06:44:48.815Z,7.30
2019-01-08T06:47:30.331Z,7.20
2019-01-08T06:50:11.043Z,7.00
2019-01-08T06:52:51.875Z,7.20
2019-01-08T06:55:19.937Z,7.00
2019-01-08T06:58:08.480Z,7.70
2019-01-08T07:00:48.072Z,7.00
2019-01-08T07:03:28.220Z,6.90
2019-01-08T07:06:08.157Z,7.50
2019-01-08T07:08:47.707Z,6.80
2019-01-08T07:11:28.762Z,7.00
2019-01-08T07:14:09.611Z,7.30
2019-01-08T07:16:50.448Z,7.30
2019-01-08T07:19:32.361Z,7.30
2019-01-08T07:22:12.841Z,6.80
2019-01-08T07:24:53.832Z,6.90
2019-01-08T07:27:35.586Z,7.20
2019-01-08T07:30:15.597Z,7.10
2019-01-08T07:32:57.911Z,6.90
2019-01-08T07:35:37.900Z,6.70
2019-01-08T07:38:18.616Z,7.30
2019-01-08T07:40:46.569Z,7.50
2019-01-08T07:43:33.571Z,7.20
2019-01-08T07:49:05.367Z,7.30
2019-01-08T07:51:46.120Z,7.30
2019-01-08T07:54:27.792Z,7.10
2019-01-08T07:57:09.171Z,7.30
2019-01-08T07:59:49.559Z,7.00
2019-01-08T08:02:29.488Z,7.30
2019-01-08T08:05:09.752Z,7.10
2019-01-08T08:07:50.028Z,7.20
2019-01-08T08:10:30.020Z,7.10
2019-01-08T08:13:10.099Z,7.00
2019-01-08T08:15:51.394Z,7.20
2019-01-08T08:18:31.979Z,7.30
2019-01-08T08:21:13.399Z,7.50
2019-01-08T08:23:43.347Z,7.60
2019-01-08T08:26:32.195Z,7.30
2019-01-08T08:29:13.962Z,7.40
2019-01-08T08:31:42.774Z,6.90
2019-01-08T08:34:25.386Z,7.30
2019-01-08T08:37:05.239Z,6.90
2019-01-08T08:42:34.839Z,7.20
2019-01-08T08:45:22.370Z,7.10
2019-01-08T08:48:12.447Z,7.20
2019-01-08T08:50:54.623Z,7.10
2019-01-08T08:53:35.759Z,7.00
2019-01-08T08:56:21.022Z,7.10
2019-01-08T08:59:01.849Z,7.00
2019-01-08T09:01:41.912Z,7.30
2019-01-08T09:04:22.022Z,7.10
2019-01-08T09:07:01.926Z,6.90
2019-01-08T09:09:41.575Z,7.10
2019-01-08T09:12:21.536Z,6.90
2019-01-08T09:15:02.528Z,6.50
2019-01-08T09:17:34.332Z,6.80
2019-01-08T09:20:23.579Z,7.10
2019-01-08T09:23:05.564Z,7.10
2019-01-08T09:25:46.748Z,7.20
2019-01-08T09:28:27.675Z,7.00
2019-01-08T09:31:15.534Z,6.90
2019-01-08T09:33:55.569Z,6.90
2019-01-08T09:36:35.694Z,6.90
2019-01-08T09:39:16.069Z,7.00
2019-01-08T09:41:56.926Z,7.20
2019-01-08T09:44:37.436Z,6.50
2019-01-08T09:47:18.216Z,6.80
2019-01-08T09:49:59.333Z,6.30
2019-01-08T09:52:40.359Z,6.80
2019-01-08T09:55:08.778Z,6.80
2019-01-08T09:57:58.136Z,7.30
2019-01-08T10:00:40.540Z,7.10
2019-01-08T10:03:32.827Z,6.70
2019-01-08T10:06:00.120Z,6.80
2019-01-08T10:08:30.868Z,6.90
2019-01-08T10:11:18.309Z,6.90
2019-01-08T10:13:49.095Z,6.90
2019-01-08T10:16:36.067Z,7.00
2019-01-08T10:19:28.191Z,6.80
2019-01-08T10:22:16.852Z,7.00
2019-01-08T10:25:00.992Z,7.40
2019-01-08T10:27:41.949Z,7.00
2019-01-08T10:30:22.835Z,7.10
2019-01-08T10:33:03.450Z,6.90
2019-01-08T10:35:43.675Z,7.20
2019-01-08T10:38:24.310Z,7.20
2019-01-08T10:41:04.629Z,7.20
2019-01-08T10:43:44.682Z,7.20
2019-01-08T10:46:37.430Z,7.20
2019-01-08T10:49:40.240Z,7.20
2019-01-08T10:52:22.379Z,7.40
2019-01-08T10:55:09.008Z,6.80
2019-01-08T10:57:51.059Z,7.40
2019-01-08T11:00:32.292Z,7.40
2019-01-08T11:03:12.401Z,7.30
2019-01-08T11:05:52.401Z,7.70
2019-01-08T11:08:32.196Z,7.40
2019-01-08T11:11:12.175Z,7.10
2019-01-08T11:13:52.092Z,7.30
2019-01-08T11:16:32.275Z,7.30
2019-01-08T11:19:13.401Z,7.40
2019-01-08T11:21:58.642Z,7.40
2019-01-08T11:27:10.936Z,7.40
2019-01-08T11:29:52.687Z,7.90
2019-01-08T11:32:21.695Z,7.50
2019-01-08T11:34:50.839Z,7.50
2019-01-08T11:37:19.786Z,7.50
2019-01-08T11:40:08.380Z,7.50
2019-01-08T11:42:48.610Z,7.90
2019-01-08T11:45:28.680Z,7.80
2019-01-08T11:48:08.728Z,8.10
2019-01-08T11:50:49.114Z,7.60
2019-01-08T11:53:16.482Z,7.50
2019-01-08T11:56:04.172Z,7.50
2019-01-08T11:58:45.684Z,7.40
2019-01-08T12:01:26.718Z,7.30
2019-01-08T12:04:07.576Z,7.40
2019-01-08T12:06:48.720Z,7.20
2019-01-08T12:09:29.740Z,7.10
2019-01-08T12:12:10.838Z,7.30
2019-01-08T12:14:52.174Z,6.80
2019-01-08T12:17:22.961Z,7.20
2019-01-08T12:20:10.603Z,7.40
2019-01-08T12:22:50.896Z,7.70
2019-01-08T12:25:31.218Z,7.10
2019-01-08T12:28:18.689Z,7.10
2019-01-08T12:31:00.082Z,7.30
2019-01-08T12:33:41.935Z,7.70
2019-01-08T12:36:22.658Z,7.30
2019-01-08T12:39:03.858Z,7.60
2019-01-08T12:41:44.734Z,7.40
2019-01-08T12:44:26.119Z,7.40
2019-01-08T12:47:14.253Z,7.40
2019-01-08T12:50:01.803Z,7.30
2019-01-08T12:52:42.307Z,7.40
2019-01-08T12:55:13.600Z,7.50
2019-01-08T12:58:00.719Z,7.50
2019-01-08T13:00:42.226Z,7.50
2019-01-08T13:03:23.883Z,7.50
2019-01-08T13:05:53.442Z,7.50
2019-01-08T13:08:41.888Z,7.50
2019-01-08T13:11:12.362Z,7.50
2019-01-08T13:14:01.215Z,7.60
2019-01-08T13:16:30.670Z,7.30
2019-01-08T13:19:19.243Z,7.60
2019-01-08T13:21:51.467Z,7.60
2019-01-08T13:24:38.555Z,7.60
2019-01-08T13:27:17.958Z,7.70
2019-01-08T13:29:59.025Z,7.60
2019-01-08T13:32:27.931Z,7.60
2019-01-08T13:35:15.784Z,7.80
2019-01-08T13:38:17.216Z,8.10
2019-01-08T13:41:00.113Z,7.70
2019-01-08T13:43:44.121Z,7.60
2019-01-08T13:46:25.797Z,7.60
2019-01-08T13:49:07.781Z,7.60
2019-01-08T13:51:49.985Z,7.10
2019-01-08T13:54:31.001Z,7.40
2019-01-08T14:00:08.058Z,7.20
2019-01-08T14:02:56.651Z,7.00
2019-01-08T14:05:37.164Z,6.90
2019-01-08T14:08:17.094Z,6.90
2019-01-08T14:10:57.528Z,6.90
2019-01-08T14:13:38.078Z,7.00
2019-01-08T14:16:19.036Z,7.00
2019-01-08T14:18:59.975Z,6.90
2019-01-08T14:21:41.056Z,7.10
2019-01-08T14:24:22.232Z,7.30
2019-01-08T14:27:11.592Z,7.50
2019-01-08T14:29:50.501Z,7.70
2019-01-08T14:32:40.354Z,7.50
2019-01-08T14:35:13.538Z,7.50
2019-01-08T14:37:41.459Z,7.30
2019-01-08T14:40:31.572Z,7.50
2019-01-08T14:43:14.234Z,7.50
2019-01-08T14:45:53.466Z,7.40
2019-01-08T14:48:33.267Z,7.20
2019-01-08T14:51:14.859Z,7.30
2019-01-08T14:53:55.929Z,7.00
2019-01-08T14:56:28.422Z,7.10
2019-01-08T14:59:17.203Z,6.80
2019-01-08T15:01:59.508Z,6.60
2019-01-08T15:04:42.816Z,6.60
2019-01-08T15:07:23.599Z,6.70
2019-01-08T15:12:44.034Z,6.90
2019-01-08T15:15:28.861Z,6.50
2019-01-08T15:17:55.971Z,6.90
2019-01-08T15:20:43.279Z,6.70
2019-01-08T15:23:25.243Z,6.70
2019-01-08T15:26:15.271Z,6.40
2019-01-08T15:29:04.309Z,6.70
2019-01-08T15:31:45.442Z,6.70
2019-01-08T15:34:14.215Z,6.50
2019-01-08T15:37:03.035Z,6.60
2019-01-08T15:39:43.619Z,6.60
2019-01-08T15:42:29.411Z,6.60
2019-01-08T15:45:09.645Z,6.60
2019-01-08T15:47:49.448Z,6.90
2019-01-08T15:50:29.520Z,6.60
2019-01-08T15:53:10.383Z,6.20
2019-01-08T15:55:51.399Z,6.40
2019-01-08T15:58:32.405Z,6.50
2019-01-08T16:01:15.082Z,6.70
2019-01-08T16:03:55.623Z,6.70
2019-01-08T16:06:36.708Z,6.50
2019-01-08T16:12:35.607Z,6.70
2019-01-08T16:15:17.266Z,6.60
2019-01-08T16:17:47.086Z,6.90
2019-01-08T16:20:35.914Z,6.80
2019-01-08T16:23:17.966Z,6.80
2019-01-08T16:25:58.621Z,6.50
2019-01-08T16:28:39.739Z,7.20
2019-01-08T16:31:24.786Z,6.50
2019-01-08T16:34:05.041Z,7.00
2019-01-08T16:36:45.873Z,7.10
2019-01-08T16:39:25.310Z,6.40
2019-01-08T16:42:05.477Z,6.80
2019-01-08T16:44:45.644Z,6.80
2019-01-08T16:47:26.767Z,6.70
2019-01-08T16:50:07.597Z,6.40
2019-01-08T16:52:52.863Z,6.50
2019-01-08T16:55:38.727Z,6.30
2019-01-08T16:58:19.407Z,6.50
2019-01-08T17:01:00.483Z,6.30
2019-01-08T17:03:41.389Z,6.30
2019-01-08T17:06:21.659Z,6.20
2019-01-08T17:09:01.760Z,6.20
2019-01-08T17:11:42.206Z,6.20
2019-01-08T17:14:22.078Z,6.70
2019-01-08T17:17:02.123Z,6.50
2019-01-08T17:19:43.571Z,6.20
2019-01-08T17:22:24.651Z,6.40
2019-01-08T17:25:05.303Z,6.50
2019-01-08T17:27:46.696Z,6.30
2019-01-08T17:30:27.776Z,6.20
2019-01-08T17:33:09.319Z,5.90
2019-01-08T17:35:50.927Z,6.20
2019-01-08T17:38:31.146Z,6.00
2019-01-08T17:41:18.343Z,6.10
2019-01-08T17:43:56.563Z,6.20
2019-01-08T17:46:23.859Z,6.30
2019-01-08T17:48:51.495Z,6.10
2019-01-08T17:54:59.711Z,6.00
2019-01-08T17:57:41.779Z,5.80
2019-01-08T18:00:23.031Z,6.20
2019-01-08T18:03:04.576Z,6.10
2019-01-08T18:05:45.868Z,6.20
2019-01-08T18:08:27.376Z,6.20
2019-01-08T18:11:07.544Z,6.60
2019-01-08T18:13:48.271Z,6.30
2019-01-08T18:16:28.079Z,6.00
2019-01-08T18:19:08.364Z,6.30
2019-01-08T18:21:48.392Z,6.30
2019-01-08T18:24:28.019Z,6.70
2019-01-08T18:27:11.087Z,6.40
2019-01-08T18:29:52.564Z,6.60
2019-01-08T18:32:33.359Z,6.40
2019-01-08T18:35:14.367Z,5.90
2019-01-08T18:37:55.791Z,6.10
2019-01-08T18:40:36.722Z,6.00
2019-01-08T18:43:13.835Z,6.00
2019-01-08T18:46:16.933Z,5.90
2019-01-08T18:49:01.364Z,5.90
2019-01-08T18:51:41.590Z,5.90
2019-01-08T18:54:21.463Z,6.00
2019-01-08T18:57:02.240Z,5.90
2019-01-08T18:59:44.138Z,5.90
2019-01-08T19:02:25.265Z,5.60
2019-01-08T19:05:05.939Z,5.60
2019-01-08T19:07:47.469Z,5.50
2019-01-08T19:10:28.522Z,5.90
2019-01-08T19:12:57.299Z,6.10
2019-01-08T19:18:52.622Z,5.60
2019-01-08T19:21:33.360Z,5.70
2019-01-08T19:24:14.003Z,5.60
2019-01-08T19:26:54.974Z,5.70
2019-01-08T19:29:35.796Z,5.30
2019-01-08T19:32:17.534Z,5.90
2019-01-08T19:34:59.093Z,5.50
2019-01-08T19:37:40.290Z,5.50
2019-01-08T19:40:21.721Z,5.60
2019-01-08T19:43:01.106Z,5.60
2019-01-08T19:45:41.384Z,5.70
2019-01-08T19:48:21.608Z,5.80
2019-01-08T19:51:01.551Z,6.20
2019-01-08T19:53:41.806Z,5.80
2019-01-08T19:56:22.848Z,5.90
2019-01-08T19:59:03.387Z,5.90
2019-01-08T20:01:46.066Z,5.50
2019-01-08T20:04:26.959Z,5.90
2019-01-08T20:07:07.846Z,6.00
2019-01-08T20:09:48.834Z,6.00
2019-01-08T20:12:29.931Z,6.20
2019-01-08T20:15:10.182Z,6.00
2019-01-08T20:17:50.330Z,6.20
2019-01-08T20:20:32.326Z,6.30
2019-01-08T20:23:12.483Z,6.20
2019-01-08T20:25:52.571Z,6.40
2019-01-08T20:28:33.601Z,6.10
2019-01-08T20:31:14.391Z,6.10
2019-01-08T20:33:55.436Z,6.20
2019-01-08T20:36:37.181Z,6.10
2019-01-08T20:39:18.335Z,5.90
2019-01-08T20:41:59.801Z,6.40
2019-01-08T20:44:41.456Z,6.00
2019-01-08T20:47:21.557Z,6.00
2019-01-08T20:50:01.464Z,6.00
2019-01-08T20:52:42.303Z,6.20
2019-01-08T20:55:22.914Z,6.10
2019-01-08T20:58:02.837Z,6.50
2019-01-08T21:00:31.909Z,6.00
2019-01-08T21:03:21.018Z,6.20
2019-01-08T21:06:02.584Z,6.10
2019-01-08T21:08:43.836Z,6.40
2019-01-08T21:11:12.602Z,6.20
2019-01-08T21:14:01.225Z,6.20
2019-01-08T21:16:42.733Z,6.20
2019-01-08T21:19:22.891Z,6.60
2019-01-08T21:22:02.686Z,6.40
2019-01-08T21:24:43.083Z,6.00
2019-01-08T21:27:23.827Z,6.10
2019-01-08T21:30:04.193Z,6.10
2019-01-08T21:34:59.194Z,6.10
2019-01-08T21:37:41.483Z,6.10
2019-01-08T21:40:10.695Z,6.00
2019-01-08T21:42:59.926Z,6.20
2019-01-08T21:45:41.685Z,6.20
2019-01-08T21:48:22.594Z,6.40
2019-01-08T21:51:04.099Z,5.90
2019-01-08T21:53:45.423Z,5.70
2019-01-08T21:56:25.263Z,6.10
2019-01-08T21:59:05.101Z,5.70
2019-01-08T22:01:45.652Z,6.40
2019-01-08T22:04:13.093Z,6.20
2019-01-08T22:07:00.518Z,6.00
2019-01-08T22:09:40.474Z,6.40
2019-01-08T22:12:21.585Z,6.50
2019-01-08T22:15:02.903Z,6.10
2019-01-08T22:17:48.196Z,6.10
2019-01-08T22:20:29.708Z,6.10
2019-01-08T22:23:10.766Z,6.10
2019-01-08T22:25:51.896Z,6.00
2019-01-08T22:28:32.587Z,6.10
2019-01-08T22:31:13.783Z,5.90
2019-01-08T22:33:42.514Z,6.10
2019-01-08T22:36:11.143Z,5.90
2019-01-08T22:38:52.024Z,5.90
2019-01-08T22:41:32.695Z,6.00
2019-01-08T22:44:12.583Z,6.00
2019-01-08T22:46:52.867Z,6.00
2019-01-08T22:49:34.006Z,6.10
2019-01-08T22:52:15.456Z,5.90
2019-01-08T22:54:56.362Z,6.10
2019-01-08T22:57:37.215Z,5.80
2019-01-08T23:00:38.423Z,6.00
2019-01-08T23:03:21.337Z,5.90
2019-01-08T23:06:02.274Z,5.80
2019-01-08T23:08:43.925Z,5.80
2019-01-08T23:11:25.128Z,5.80
2019-01-08T23:14:05.711Z,6.20
2019-01-08T23:16:47.076Z,5.30
2019-01-08T23:19:27.039Z,5.80
2019-01-08T23:22:08.512Z,6.00
2019-01-08T23:24:53.636Z,5.50
2019-01-08T23:27:35.299Z,5.80
2019-01-08T23:30:16.786Z,5.80
2019-01-08T23:32:58.126Z,5.80
2019-01-08T23:35:26.294Z,5.40
2019-01-08T23:38:15.026Z,5.70
2019-01-08T23:40:54.643Z,5.70
2019-01-08T23:43:34.552Z,5.50
2019-01-08T23:46:14.537Z,5.70
2019-01-08T23:48:53.893Z,5.70
2019-01-08T23:51:34.515Z,5.70
2019-01-08T23:54:14.920Z,5.50
2019-01-08T23:56:56.072Z,5.60
2019-01-08T23:59:37.159Z,5.60
